Time;durP1;ratioP1;P1;durP2;ratioP2;P2;SDS_P1;SDS_P2;PMS_P1;PMS_P2;Temp;Humidity;BMP_temperature;BMP_pressure;BME280_temperature;BME280_humidity;BME280_pressure;Samples;Min_cycle;Max_cycle;Signal;HPM_P1;HPM_P2
2022/12/22 03:26:18;;;;;;;93.93;41.58;;;;;;;7.67;100.00;100116.78;5112914;28;20172;-49
2022/12/22 03:28:43;;;;;;;109.90;39.90;;;;;;;7.65;100.00;100112.44;5112737;28;20098;-49
2022/12/22 03:31:09;;;;;;;85.90;38.17;;;;;;;7.66;100.00;100111.59;5113261;28;20023;-47
2022/12/22 03:33:35;;;;;;;144.52;40.63;;;;;;;7.63;100.00;100106.38;5112481;28;20026;-48
2022/12/22 03:36:00;;;;;;;240.45;48.53;;;;;;;7.66;100.00;100106.47;5113059;28;20019;-49
2022/12/22 03:38:26;;;;;;;94.80;40.80;;;;;;;7.64;100.00;100103.00;5113252;28;20051;-49
2022/12/22 03:40:52;;;;;;;129.15;35.67;;;;;;;7.56;100.00;100098.50;5112489;28;20027;-48
2022/12/22 03:46:28;;;;;;;65.97;29.83;;;;;;;7.50;100.00;100095.78;5113206;28;20034;-49
2022/12/22 03:49:11;;;;;;;70.65;33.13;;;;;;;7.53;100.00;100090.72;5091797;28;20089;-50
2022/12/22 03:51:40;;;;;;;97.35;35.83;;;;;;;7.51;100.00;100086.38;5092320;28;20032;-49
2022/12/22 03:54:07;;;;;;;256.17;46.35;;;;;;;7.51;100.00;100088.94;5092618;28;20494;-48
2022/12/22 03:56:32;;;;;;;165.00;40.50;;;;;;;7.51;100.00;100084.66;5091802;28;20028;-49
2022/12/22 03:58:58;;;;;;;279.50;44.22;;;;;;;7.51;100.00;100081.25;5092678;28;20038;-49
2022/12/22 04:01:23;;;;;;;578.80;53.40;;;;;;;7.51;100.00;100079.53;5092155;28;20024;-49
2022/12/22 04:03:49;;;;;;;590.97;54.92;;;;;;;7.51;100.00;100076.97;5092310;28;20038;-49
2022/12/22 04:06:15;;;;;;;396.35;46.35;;;;;;;7.50;100.00;100082.06;5092757;28;20051;-49
2022/12/22 04:08:41;;;;;;;434.55;48.72;;;;;;;7.47;100.00;100074.28;5091841;28;20039;-45
2022/12/22 04:13:50;;;;;;;294.20;42.65;;;;;;;7.45;100.00;100066.56;5092518;28;20042;-46
2022/12/22 04:16:15;;;;;;;299.38;43.33;;;;;;;7.45;100.00;100069.13;5093649;28;20106;-49
2022/12/22 04:18:40;;;;;;;415.52;52.72;;;;;;;7.43;100.00;100068.19;5096029;28;20372;-50
2022/12/22 04:21:05;;;;;;;267.50;40.95;;;;;;;7.41;100.00;100059.56;5096502;28;20146;-49
2022/12/22 04:23:31;;;;;;;193.23;42.63;;;;;;;7.43;100.00;100062.22;5095815;28;20050;-44
2022/12/22 04:25:56;;;;;;;206.82;43.13;;;;;;;7.42;100.00;100061.31;5096156;28;20081;-49
2022/12/22 04:28:21;;;;;;;179.55;45.22;;;;;;;7.43;100.00;100073.31;5096573;28;20486;-48
2022/12/22 04:30:50;;;;;;;138.85;43.72;;;;;;;7.43;100.00;100077.59;5095540;28;20051;-48
2022/12/22 04:33:16;;;;;;;104.38;38.78;;;;;;;7.39;100.00;100074.91;5096097;28;20028;-49
2022/12/22 04:35:41;;;;;;;114.93;42.38;;;;;;;7.43;100.00;100088.69;5096375;28;20102;-48
2022/12/22 04:38:06;;;;;;;144.82;44.92;;;;;;;7.42;100.00;100084.38;5095645;28;20433;-49
2022/12/22 04:40:32;;;;;;;143.82;45.70;;;;;;;7.45;100.00;100087.06;5095426;28;20031;-49
2022/12/22 04:42:57;;;;;;;122.45;45.55;;;;;;;7.48;100.00;100092.28;5095944;28;20055;-46
2022/12/22 04:45:22;;;;;;;165.18;45.25;;;;;;;7.47;100.00;100093.09;5095728;28;20020;-48
2022/12/22 04:47:47;;;;;;;160.75;42.85;;;;;;;7.45;100.00;100092.19;5095657;28;20035;-49
2022/12/22 04:50:13;;;;;;;191.48;47.25;;;;;;;7.47;100.00;100090.53;5096003;28;20437;-47
2022/12/22 04:52:38;;;;;;;143.30;45.47;;;;;;;7.50;100.00;100088.06;5094774;28;20028;-45
2022/12/22 04:55:05;;;;;;;170.20;48.95;;;;;;;7.50;100.00;100085.50;5095836;28;20078;-48
2022/12/22 04:57:30;;;;;;;240.38;53.22;;;;;;;7.48;100.00;100082.03;5095410;28;20024;-44
2022/12/22 04:59:56;;;;;;;246.30;51.40;;;;;;;7.46;100.00;100073.41;5095454;28;20074;-47
2022/12/22 05:02:21;;;;;;;210.30;50.92;;;;;;;7.47;100.00;100081.97;5095564;28;20534;-49
2022/12/22 05:04:46;;;;;;;131.35;47.70;;;;;;;7.53;100.00;100080.47;5094936;28;20024;-46
2022/12/22 05:07:11;;;;;;;211.27;48.92;;;;;;;7.40;100.00;100084.34;5095444;28;20463;-47
2022/12/22 05:09:37;;;;;;;152.60;46.65;;;;;;;7.38;100.00;100080.00;5094999;28;20031;-49
2022/12/22 05:12:53;;;;;;;137.90;43.17;;;;;;;7.40;100.00;100080.94;5094942;28;20384;-48
2022/12/22 05:14:48;;;;;;;486.02;48.40;;;;;;;7.32;100.00;100084.94;5094836;28;20472;-49
2022/12/22 05:17:13;;;;;;;348.00;44.00;;;;;;;7.28;100.00;100088.25;5095535;28;20042;-49
2022/12/22 05:19:38;;;;;;;353.58;41.72;;;;;;;7.26;100.00;100090.75;5094597;28;20020;-49
2022/12/22 05:22:03;;;;;;;263.15;41.63;;;;;;;7.27;100.00;100096.75;5095120;28;20024;-49
2022/12/22 05:24:29;;;;;;;118.50;37.25;;;;;;;7.28;100.00;100083.09;5095176;28;20026;-47
2022/12/22 05:26:54;;;;;;;158.30;37.15;;;;;;;7.23;100.00;100093.22;5094172;28;20031;-48
2022/12/22 05:29:19;;;;;;;186.38;36.92;;;;;;;7.21;100.00;100097.44;5094141;28;20028;-50
2022/12/22 05:31:44;;;;;;;164.88;37.67;;;;;;;7.22;100.00;100102.59;5094887;28;20028;-48
2022/12/22 05:34:10;;;;;;;201.75;37.92;;;;;;;7.19;100.00;100101.63;5094534;28;20055;-49
2022/12/22 05:36:35;;;;;;;74.47;34.42;;;;;;;7.23;100.00;100101.78;5094395;28;20020;-48
2022/12/22 05:39:00;;;;;;;157.60;37.03;;;;;;;7.21;100.00;100103.41;5095060;28;20028;-48
2022/12/22 05:41:25;;;;;;;94.78;34.63;;;;;;;7.22;100.00;100112.84;5094594;28;20464;-47
2022/12/22 05:43:51;;;;;;;82.55;37.55;;;;;;;7.28;100.00;100113.88;5094400;28;20016;-49
2022/12/22 05:46:16;;;;;;;118.07;37.85;;;;;;;7.27;100.00;100102.75;5094911;28;20540;-49
2022/12/22 05:48:41;;;;;;;225.77;44.70;;;;;;;7.27;100.00;100113.00;5093690;28;20035;-47
2022/12/22 05:51:08;;;;;;;132.65;37.13;;;;;;;7.21;100.00;100113.66;5094711;28;20464;-48
2022/12/22 05:53:33;;;;;;;91.28;36.25;;;;;;;7.24;100.00;100118.91;5094485;28;20039;-49
2022/12/22 05:55:58;;;;;;;98.50;38.13;;;;;;;7.25;100.00;100128.31;5094055;28;20021;-45
2022/12/22 05:58:24;;;;;;;102.45;39.42;;;;;;;7.27;100.00;100125.81;5094743;28;20030;-48
2022/12/22 06:00:49;;;;;;;114.43;37.70;;;;;;;7.24;100.00;100135.97;5093938;28;20077;-47
2022/12/22 06:03:14;;;;;;;123.25;37.55;;;;;;;7.25;100.00;100148.81;5094205;28;20076;-48
2022/12/22 06:05:40;;;;;;;149.70;41.53;;;;;;;7.28;100.00;100155.75;5094167;28;20129;-47
2022/12/22 06:08:05;;;;;;;150.07;43.95;;;;;;;7.32;100.00;100161.84;5093904;28;20077;-48
2022/12/22 06:10:30;;;;;;;225.55;48.33;;;;;;;7.34;100.00;100162.78;5094198;28;20066;-44
2022/12/22 06:12:55;;;;;;;142.20;44.45;;;;;;;7.39;100.00;100162.06;5094258;28;20517;-49
2022/12/22 06:15:21;;;;;;;185.82;49.10;;;;;;;7.46;100.00;100164.84;5093876;28;20117;-46
2022/12/22 06:17:46;;;;;;;201.93;50.25;;;;;;;7.48;100.00;100168.34;5093645;28;20445;-49
2022/12/22 06:20:12;;;;;;;206.60;53.10;;;;;;;7.52;100.00;100160.78;5094176;28;20024;-48
2022/12/22 06:22:38;;;;;;;212.85;55.08;;;;;;;7.53;100.00;100167.66;5093203;28;20020;-49
2022/12/22 06:25:03;;;;;;;232.65;56.00;;;;;;;7.58;100.00;100170.38;5094093;28;20432;-48
2022/12/22 06:27:29;;;;;;;223.65;54.33;;;;;;;7.62;100.00;100168.72;5093950;28;20069;-46
2022/12/22 06:29:54;;;;;;;230.55;55.92;;;;;;;7.65;100.00;100169.72;5093018;28;20024;-46
2022/12/22 06:32:19;;;;;;;209.07;55.92;;;;;;;7.68;100.00;100179.19;5093818;28;20043;-47
2022/12/22 06:34:44;;;;;;;229.05;56.90;;;;;;;7.69;100.00;100179.22;5093507;28;20027;-47
2022/12/22 06:37:10;;;;;;;236.40;57.55;;;;;;;7.71;100.00;100187.00;5093316;28;20028;-48
2022/12/22 06:39:35;;;;;;;259.70;58.15;;;;;;;7.70;100.00;100198.94;5093107;28;20099;-47
2022/12/22 06:44:44;;;;;;;294.48;65.90;;;;;;;7.69;100.00;100221.97;5093180;28;20047;-49
2022/12/22 06:47:09;;;;;;;279.98;66.05;;;;;;;7.68;100.00;100213.41;5093514;28;20024;-50
2022/12/22 06:49:34;;;;;;;288.55;71.75;;;;;;;7.69;100.00;100214.28;5093168;28;20448;-46
2022/12/22 06:52:00;;;;;;;285.48;72.70;;;;;;;7.67;100.00;100211.69;5093100;28;20036;-48
2022/12/22 06:54:25;;;;;;;286.00;71.28;;;;;;;7.67;100.00;100213.34;5093774;28;20024;-46
2022/12/22 06:56:50;;;;;;;294.58;75.15;;;;;;;7.65;100.00;100222.72;5093130;28;20027;-44
2022/12/22 06:59:16;;;;;;;304.83;72.80;;;;;;;7.64;100.00;100236.34;5092826;28;20020;-48
2022/12/22 07:01:41;;;;;;;277.65;73.25;;;;;;;7.63;100.00;100243.19;5092985;28;20059;-46
2022/12/22 07:04:07;;;;;;;299.88;73.80;;;;;;;7.62;100.00;100245.69;5092820;28;20081;-48
2022/12/22 07:06:32;;;;;;;322.63;76.60;;;;;;;7.58;100.00;100239.59;5093282;28;20107;-47
2022/12/22 07:08:58;;;;;;;295.30;74.90;;;;;;;7.57;100.00;100251.53;5093482;28;20063;-46
2022/12/22 07:11:23;;;;;;;293.73;74.07;;;;;;;7.56;100.00;100256.63;5092520;28;20468;-49
2022/12/22 07:13:48;;;;;;;308.63;75.13;;;;;;;7.54;100.00;100258.25;5092760;28;20028;-48
2022/12/22 07:16:14;;;;;;;323.85;77.47;;;;;;;7.50;100.00;100275.25;5093224;28;20032;-47
2022/12/22 07:18:41;;;;;;;318.55;77.18;;;;;;;7.50;100.00;100272.69;5092322;28;20023;-49
2022/12/22 07:21:09;;;;;;;304.90;79.37;;;;;;;7.45;100.00;100276.78;5092917;28;20110;-48
2022/12/22 07:23:35;;;;;;;291.40;74.78;;;;;;;7.40;100.00;100268.09;5092929;28;20020;-45
2022/12/22 07:26:00;;;;;;;287.80;77.47;;;;;;;7.38;100.00;100272.28;5092365;28;20024;-45
2022/12/22 07:28:26;;;;;;;294.48;75.80;;;;;;;7.29;100.00;100264.28;5092714;28;20024;-47
2022/12/22 07:30:54;;;;;;;291.52;76.47;;;;;;;7.21;100.00;100267.44;5092394;28;20040;-49
2022/12/22 07:33:19;;;;;;;288.60;76.22;;;;;;;7.21;100.00;100269.16;5092348;28;20056;-48
2022/12/22 07:35:45;;;;;;;310.45;77.20;;;;;;;7.10;100.00;100268.75;5092346;28;20055;-47
2022/12/22 07:38:10;;;;;;;305.98;81.80;;;;;;;7.13;100.00;100283.38;5092926;28;20028;-48
2022/12/22 07:40:36;;;;;;;325.27;84.13;;;;;;;7.15;100.00;100292.00;5092013;28;20391;-46
2022/12/22 07:43:01;;;;;;;348.92;85.00;;;;;;;7.16;100.00;100289.47;5092693;28;20027;-48
2022/12/22 07:45:27;;;;;;;355.73;83.80;;;;;;;7.17;100.00;100296.34;5092796;28;20417;-45
2022/12/22 07:47:58;;;;;;;359.30;84.00;;;;;;;7.20;100.00;100301.56;5091816;28;20013;-48
2022/12/22 07:50:24;;;;;;;396.17;88.32;;;;;;;7.20;100.00;100300.72;5092731;28;20169;-45
2022/12/22 07:52:50;;;;;;;380.38;85.70;;;;;;;7.21;100.00;100313.59;5096520;28;20059;-46
2022/12/22 07:55:15;;;;;;;351.52;80.60;;;;;;;7.23;100.00;100316.19;5096301;28;20027;-50
2022/12/22 07:57:41;;;;;;;378.73;84.03;;;;;;;7.24;100.00;100323.06;5096619;28;20035;-46
2022/12/22 08:00:06;;;;;;;385.77;84.35;;;;;;;7.23;100.00;100327.34;5096815;28;20020;-49
2022/12/22 08:02:32;;;;;;;381.90;80.13;;;;;;;7.23;100.00;100352.06;5095569;28;20391;-48
2022/12/22 08:04:57;;;;;;;308.80;73.95;;;;;;;7.19;100.00;100366.50;5096705;28;20066;-46
2022/12/22 08:07:22;;;;;;;302.45;76.28;;;;;;;7.16;100.00;100361.25;5096600;28;20032;-45
2022/12/22 08:09:48;;;;;;;286.77;70.85;;;;;;;7.14;100.00;100370.59;5095844;28;20043;-48
2022/12/22 08:12:13;;;;;;;287.85;74.97;;;;;;;7.15;100.00;100382.56;5096744;28;20040;-48
2022/12/22 08:14:38;;;;;;;297.08;75.90;;;;;;;7.16;100.00;100376.63;5095841;28;20032;-48
2022/12/22 08:17:03;;;;;;;279.85;72.35;;;;;;;7.15;100.00;100380.00;5096293;28;20020;-49
2022/12/22 08:19:29;;;;;;;293.27;74.15;;;;;;;7.15;100.00;100380.00;5096623;28;20038;-48
2022/12/22 08:21:54;;;;;;;301.88;75.78;;;;;;;7.17;100.00;100375.81;5095711;28;20514;-48
2022/12/22 08:24:20;;;;;;;290.73;73.78;;;;;;;7.19;100.00;100381.88;5096454;28;20421;-49
2022/12/22 08:26:50;;;;;;;292.55;74.18;;;;;;;7.20;100.00;100373.34;5096008;28;20032;-48
2022/12/22 08:29:22;;;;;;;298.85;76.90;;;;;;;7.22;100.00;100386.25;5095670;28;20115;-49
2022/12/22 08:31:48;;;;;;;268.33;71.70;;;;;;;7.19;100.00;100387.00;5095666;28;20073;-48
2022/12/22 08:34:15;;;;;;;243.32;68.82;;;;;;;7.16;100.00;100386.88;5096343;28;20024;-45
2022/12/22 08:36:48;;;;;;;227.57;67.32;;;;;;;7.15;100.00;100400.50;5095540;28;20051;-48
2022/12/22 08:39:15;;;;;;;230.32;66.55;;;;;;;7.14;100.00;100409.03;5095919;28;20379;-44
2022/12/22 08:41:49;;;;;;;222.43;63.17;;;;;;;7.11;100.00;100414.03;5095857;28;20028;-48
2022/12/22 08:44:22;;;;;;;224.05;66.78;;;;;;;7.07;100.00;100422.41;5095273;28;20078;-48
2022/12/22 08:46:49;;;;;;;238.85;71.90;;;;;;;7.06;100.00;100430.91;5095657;28;20073;-49
2022/12/22 08:49:15;;;;;;;268.92;96.55;;;;;;;7.05;100.00;100441.97;5095953;28;20073;-46
2022/12/22 08:51:40;;;;;;;253.57;79.30;;;;;;;7.02;100.00;100449.56;5094709;28;20032;-47
2022/12/22 08:54:06;;;;;;;235.73;72.13;;;;;;;7.03;100.00;100457.28;5095896;28;20016;-46
2022/12/22 08:56:31;;;;;;;284.67;94.40;;;;;;;7.04;100.00;100466.75;5095436;28;20352;-43
2022/12/22 08:58:57;;;;;;;244.57;68.70;;;;;;;7.02;100.00;100459.81;5094980;28;20066;-48
2022/12/22 09:01:22;;;;;;;262.10;77.50;;;;;;;7.00;100.00;100461.47;5095805;28;20035;-49
2022/12/22 09:03:52;;;;;;;248.85;71.95;;;;;;;6.98;100.00;100468.19;5094707;28;20062;-49
2022/12/22 09:06:20;;;;;;;265.23;86.43;;;;;;;6.95;100.00;100470.66;5095387;28;20063;-49
2022/12/22 09:08:46;;;;;;;304.40;106.63;;;;;;;6.94;100.00;100471.47;5095290;28;20047;-49
2022/12/22 09:11:11;;;;;;;297.17;104.93;;;;;;;6.92;100.00;100479.97;5094743;28;20082;-47
2022/12/22 09:13:37;;;;;;;280.60;78.68;;;;;;;6.92;100.00;100485.09;5094809;28;20067;-45
2022/12/22 09:16:06;;;;;;;288.10;82.68;;;;;;;6.88;100.00;100478.09;5095467;28;20020;-48
2022/12/22 09:18:32;;;;;;;281.50;83.45;;;;;;;6.84;100.00;100478.81;5094616;28;20073;-48
2022/12/22 09:20:58;;;;;;;285.35;94.75;;;;;;;6.82;100.00;100485.53;5094994;28;20020;-48
2022/12/22 09:23:23;;;;;;;310.08;100.53;;;;;;;6.78;100.00;100491.38;5095589;28;20524;-49
2022/12/22 09:25:49;;;;;;;292.73;83.10;;;;;;;6.81;100.00;100493.19;5094374;28;20028;-48
2022/12/22 09:28:14;;;;;;;342.17;91.82;;;;;;;6.83;100.00;100500.09;5094690;28;20427;-48
2022/12/22 09:30:39;;;;;;;316.08;87.75;;;;;;;6.83;100.00;100505.22;5094947;28;20028;-46
2022/12/22 09:33:04;;;;;;;305.33;83.30;;;;;;;6.84;100.00;100506.09;5094639;28;20035;-46
2022/12/22 09:35:30;;;;;;;315.25;94.57;;;;;;;6.87;100.00;100504.53;5094858;28;20534;-49
2022/12/22 09:37:55;;;;;;;299.20;83.57;;;;;;;6.87;100.00;100514.78;5094836;28;20495;-49
2022/12/22 09:40:21;;;;;;;282.85;80.85;;;;;;;6.88;100.00;100508.84;5094222;28;20047;-49
2022/12/22 09:42:46;;;;;;;319.38;103.25;;;;;;;6.90;100.00;100501.22;5094650;28;20031;-49
2022/12/22 09:45:18;;;;;;;299.85;92.05;;;;;;;6.92;100.00;100508.16;5095067;28;20021;-45
2022/12/22 09:47:52;;;;;;;324.30;103.28;;;;;;;6.96;100.00;100515.94;5093912;28;20032;-48
2022/12/22 09:50:20;;;;;;;309.83;99.05;;;;;;;6.98;100.00;100515.19;5094824;28;20060;-46
2022/12/22 09:52:48;;;;;;;293.85;88.28;;;;;;;6.92;100.00;100520.09;5094468;28;20047;-44
2022/12/22 09:55:35;;;;;;;270.10;88.15;;;;;;;6.89;100.00;100520.84;5093871;28;20032;-49
2022/12/22 09:58:00;;;;;;;271.58;82.32;;;;;;;6.85;100.00;100526.63;5094752;28;20039;-48
2022/12/22 10:00:27;;;;;;;266.38;84.97;;;;;;;6.89;100.00;100530.19;5094127;28;20018;-49
2022/12/22 10:03:27;;;;;;;277.15;84.65;;;;;;;7.04;100.00;100537.63;5093797;28;20044;-48
2022/12/22 10:06:02;;;;;;;271.05;89.38;;;;;;;7.17;100.00;100532.16;5094347;28;20028;-49
2022/12/22 10:08:31;;;;;;;240.20;81.88;;;;;;;7.23;100.00;100532.38;5093470;28;20024;-44
2022/12/22 10:10:56;;;;;;;257.05;87.15;;;;;;;7.35;100.00;100536.22;5094313;28;20035;-44
2022/12/22 10:13:22;;;;;;;223.07;80.53;;;;;;;7.36;100.00;100538.84;5093871;28;20099;-46
2022/12/22 10:15:48;;;;;;;219.32;79.90;;;;;;;7.34;100.00;100544.75;5092889;28;20077;-49
2022/12/22 10:18:24;;;;;;;208.25;76.20;;;;;;;7.31;100.00;100544.59;5094165;28;20070;-47
2022/12/22 10:21:13;;;;;;;181.95;73.35;;;;;;;7.33;100.00;100548.09;5093910;28;20028;-48
2022/12/22 10:23:43;;;;;;;191.40;71.35;;;;;;;7.32;100.00;100551.47;5093680;28;20035;-46
2022/12/22 10:26:17;;;;;;;184.32;67.88;;;;;;;7.31;100.00;100547.16;5094120;28;20024;-48
2022/12/22 10:28:48;;;;;;;182.85;67.70;;;;;;;7.28;100.00;100547.91;5093373;28;20020;-48
2022/12/22 10:31:25;;;;;;;181.05;67.38;;;;;;;7.25;100.00;100541.00;5093806;28;20036;-47
2022/12/22 10:33:53;;;;;;;169.55;68.68;;;;;;;7.21;100.00;100559.63;5093445;28;20115;-48
2022/12/22 10:36:23;;;;;;;171.88;81.07;;;;;;;7.17;100.00;100560.34;5093334;28;20032;-47
2022/12/22 10:38:56;;;;;;;153.82;66.72;;;;;;;7.17;100.00;100564.59;5093425;28;20433;-46
2022/12/22 10:41:23;;;;;;;143.75;55.00;;;;;;;7.17;100.00;100557.78;5093728;28;20028;-49
2022/12/22 10:43:55;;;;;;;133.77;58.17;;;;;;;7.17;100.00;100564.59;5092994;28;20349;-48
2022/12/22 10:47:00;;;;;;;134.10;51.25;;;;;;;7.17;100.00;100562.91;5093798;28;20036;-48
2022/12/22 10:49:34;;;;;;;146.38;52.75;;;;;;;7.05;100.00;100559.84;5052233;28;20398;-48
2022/12/22 10:52:35;;;;;;;117.53;44.72;;;;;;;7.09;100.00;100559.19;5093746;28;20074;-48
2022/12/22 10:55:34;;;;;;;130.77;46.22;;;;;;;7.22;100.00;100565.66;5011452;28;20029;-48
2022/12/22 10:58:09;;;;;;;116.95;46.65;;;;;;;7.43;100.00;100569.84;5048700;28;20044;-46
2022/12/22 11:00:35;;;;;;;115.57;40.78;;;;;;;7.42;100.00;100568.97;5093349;28;20028;-47
2022/12/22 11:03:03;;;;;;;103.78;39.72;;;;;;;7.48;100.00;100574.31;5093198;28;20547;-49
2022/12/22 11:05:30;;;;;;;106.88;43.55;;;;;;;7.62;100.00;100566.25;5092792;28;20103;-48
2022/12/22 11:07:56;;;;;;;136.70;50.25;;;;;;;7.71;100.00;100571.75;5093149;28;20020;-48
2022/12/22 11:10:49;;;;;;;107.85;43.22;;;;;;;7.83;100.00;100576.47;5092616;28;20420;-48
2022/12/22 11:13:34;;;;;;;142.63;45.65;;;;;;;7.86;100.00;100582.59;5093001;28;20028;-48
2022/12/22 11:16:18;;;;;;;115.47;43.85;;;;;;;7.71;100.00;100590.56;5093245;28;20036;-49
2022/12/22 11:19:14;;;;;;;161.80;54.58;;;;;;;7.66;100.00;100588.66;5092258;28;20039;-48
2022/12/22 11:21:55;;;;;;;108.60;40.75;;;;;;;7.76;100.00;100580.50;5092965;28;20032;-44
2022/12/22 11:24:38;;;;;;;96.13;39.55;;;;;;;7.81;100.00;100584.09;5092661;28;20039;-45
2022/12/22 11:27:21;;;;;;;94.00;37.42;;;;;;;7.88;100.00;100586.06;5093076;28;20024;-45
2022/12/22 11:30:03;;;;;;;107.75;45.63;;;;;;;7.76;100.00;100595.88;5092855;28;20028;-48
2022/12/22 11:32:43;;;;;;;96.65;40.60;;;;;;;7.68;100.00;100589.59;5092372;28;20402;-48
2022/12/22 11:35:25;;;;;;;88.28;39.67;;;;;;;7.64;100.00;100596.28;5092919;28;20036;-47
2022/12/22 11:38:05;;;;;;;98.18;42.97;;;;;;;7.64;100.00;100592.84;5092797;28;20119;-47
2022/12/22 11:40:41;;;;;;;120.68;50.75;;;;;;;7.59;100.00;100597.81;5092096;28;20039;-46
2022/12/22 11:43:54;;;;;;;120.97;52.72;;;;;;;7.63;100.00;100604.81;5092802;28;20476;-49
2022/12/22 11:46:22;;;;;;;124.90;54.50;;;;;;;7.69;100.00;100604.16;5010216;28;20037;-47
2022/12/22 11:49:02;;;;;;;138.05;59.70;;;;;;;7.66;100.00;100604.06;5076280;28;20040;-49
2022/12/22 11:52:06;;;;;;;141.75;60.72;;;;;;;7.66;100.00;100604.91;5092629;28;20039;-49
2022/12/22 11:54:53;;;;;;;138.57;62.20;;;;;;;7.61;100.00;100613.28;5091725;28;20497;-45
2022/12/22 11:57:41;;;;;;;147.75;65.38;;;;;;;7.74;100.00;100597.50;5092783;28;20106;-49
2022/12/22 12:00:09;;;;;;;151.80;68.15;;;;;;;7.90;100.00;100606.63;5092201;28;20031;-50
2022/12/22 12:02:47;;;;;;;141.48;62.95;;;;;;;8.03;100.00;100610.53;5092056;28;20047;-49
2022/12/22 12:05:23;;;;;;;126.82;58.92;;;;;;;8.02;100.00;100598.53;5092522;28;20031;-47
2022/12/22 12:08:23;;;;;;;124.45;54.78;;;;;;;8.04;100.00;100595.19;5091458;28;20024;-48
2022/12/22 12:11:00;;;;;;;121.22;54.20;;;;;;;7.95;100.00;100597.41;5087866;28;20059;-48
2022/12/22 12:13:48;;;;;;;104.45;50.42;;;;;;;7.92;100.00;100589.63;5092509;28;20495;-49
2022/12/22 12:16:41;;;;;;;115.68;53.38;;;;;;;7.86;100.00;100582.59;5092383;28;20383;-48
2022/12/22 12:19:33;;;;;;;109.10;49.10;;;;;;;7.85;100.00;100583.38;5092501;28;20422;-48
2022/12/22 12:22:02;;;;;;;106.22;47.70;;;;;;;7.78;100.00;100571.16;5091930;28;20035;-48
2022/12/22 12:24:57;;;;;;;122.25;51.78;;;;;;;7.94;100.00;100571.69;5092552;28;20063;-47
2022/12/22 12:27:38;;;;;;;117.40;51.90;;;;;;;8.07;100.00;100564.50;5092598;28;20111;-46
2022/12/22 12:30:14;;;;;;;116.18;52.88;;;;;;;8.09;100.00;100564.53;5092176;28;20032;-48
2022/12/22 12:32:49;;;;;;;115.70;50.55;;;;;;;8.07;100.00;100561.06;5092188;28;20024;-46
2022/12/22 12:35:20;;;;;;;132.60;58.47;;;;;;;7.99;100.00;100557.34;5092025;28;20030;-49
2022/12/22 12:37:54;;;;;;;114.07;49.17;;;;;;;7.95;100.00;100552.94;5093583;28;20024;-44
2022/12/22 12:40:28;;;;;;;104.35;45.85;;;;;;;7.91;100.00;100555.41;5096187;28;20456;-48
2022/12/22 12:42:55;;;;;;;145.38;49.65;;;;;;;7.86;100.00;100556.94;5095022;28;20024;-46
2022/12/22 12:45:44;;;;;;;117.72;48.15;;;;;;;7.86;100.00;100548.34;5096054;28;20038;-48
2022/12/22 12:48:36;;;;;;;148.05;48.90;;;;;;;7.85;100.00;100554.28;5096202;28;20044;-48
2022/12/22 12:51:01;;;;;;;107.90;48.38;;;;;;;7.83;100.00;100550.81;5091336;28;20036;-48
2022/12/22 12:53:28;;;;;;;111.68;53.15;;;;;;;7.84;100.00;100553.41;5095912;28;20093;-45
2022/12/22 12:55:59;;;;;;;83.10;42.47;;;;;;;7.82;100.00;100555.03;5095099;28;20031;-48
2022/12/22 12:58:36;;;;;;;96.10;43.58;;;;;;;7.82;100.00;100551.63;5095556;28;20028;-48
2022/12/22 13:01:31;;;;;;;96.60;45.85;;;;;;;7.81;100.00;100543.06;5095974;28;20039;-44
2022/12/22 13:03:56;;;;;;;96.32;44.85;;;;;;;7.82;100.00;100549.91;5094817;28;20040;-44
2022/12/22 13:06:47;;;;;;;97.95;43.80;;;;;;;7.84;100.00;100553.41;5095768;28;20123;-49
2022/12/22 13:09:20;;;;;;;90.15;44.53;;;;;;;7.85;100.00;100550.03;5095525;28;20597;-48
2022/12/22 13:11:47;;;;;;;91.80;43.65;;;;;;;7.85;100.00;100544.91;5094471;28;20524;-48
2022/12/22 13:14:51;;;;;;;95.30;44.03;;;;;;;7.88;100.00;100539.88;5095490;28;20479;-49
2022/12/22 13:17:48;;;;;;;93.75;46.10;;;;;;;7.90;100.00;100543.38;5094748;28;20486;-48
2022/12/22 13:20:17;;;;;;;164.95;64.28;;;;;;;7.88;100.00;100550.13;5095512;28;20024;-49
2022/12/22 13:22:42;;;;;;;116.80;54.15;;;;;;;7.87;100.00;100545.81;5094887;28;20558;-48
2022/12/22 13:25:15;;;;;;;91.18;43.88;;;;;;;7.87;100.00;100544.97;5094507;28;20032;-48
2022/12/22 13:27:40;;;;;;;100.90;43.05;;;;;;;7.85;100.00;100539.78;5094829;28;20374;-48
2022/12/22 13:30:13;;;;;;;150.40;48.20;;;;;;;7.81;100.00;100548.19;5095294;28;20486;-45
2022/12/22 13:32:40;;;;;;;113.55;49.03;;;;;;;7.79;100.00;100547.25;5094183;28;20020;-48
2022/12/22 13:35:37;;;;;;;160.05;54.85;;;;;;;7.81;100.00;100550.75;5095204;28;20019;-49
2022/12/22 13:38:02;;;;;;;943.70;191.77;;;;;;;7.78;100.00;100547.19;5093560;28;20036;-46
2022/12/22 13:40:31;;;;;;;243.63;100.25;;;;;;;7.79;100.00;100548.94;5094987;28;20528;-48
2022/12/22 13:43:10;;;;;;;309.88;160.90;;;;;;;7.77;100.00;100540.31;5095192;28;20024;-48
2022/12/22 13:45:41;;;;;;;204.40;122.85;;;;;;;7.79;100.00;100526.72;5094028;28;20379;-47
2022/12/22 13:48:13;;;;;;;125.53;73.75;;;;;;;7.78;100.00;100522.41;5094220;28;20042;-49
2022/12/22 13:50:44;;;;;;;81.53;44.28;;;;;;;7.74;100.00;100520.56;5094004;28;20356;-49
2022/12/22 13:53:17;;;;;;;70.72;36.92;;;;;;;7.73;100.00;100529.06;5094287;28;20028;-49
2022/12/22 13:55:46;;;;;;;73.97;37.42;;;;;;;7.72;100.00;100532.44;5094579;28;20024;-48
2022/12/22 13:58:25;;;;;;;70.15;35.80;;;;;;;7.71;100.00;100521.31;5094617;28;20064;-47
2022/12/22 14:01:19;;;;;;;76.25;42.08;;;;;;;7.76;100.00;100518.94;5093602;28;20034;-46
2022/12/22 14:03:57;;;;;;;61.00;33.75;;;;;;;7.73;100.00;100517.13;5076567;28;20052;-48
2022/12/22 14:06:34;;;;;;;63.53;33.70;;;;;;;7.71;100.00;100511.06;5094153;28;20028;-48
2022/12/22 14:09:19;;;;;;;61.83;31.58;;;;;;;7.69;100.00;100506.69;5094221;28;20020;-44
2022/12/22 14:12:10;;;;;;;63.72;34.03;;;;;;;7.64;100.00;100508.22;5094217;28;20036;-48
2022/12/22 14:14:38;;;;;;;61.03;32.72;;;;;;;7.55;100.00;100508.75;5093359;28;20024;-49
2022/12/22 14:17:22;;;;;;;71.15;34.85;;;;;;;7.51;100.00;100502.63;5094268;28;20131;-48
2022/12/22 14:19:54;;;;;;;64.72;34.65;;;;;;;7.44;100.00;100495.56;5093824;28;20063;-46
2022/12/22 14:22:35;;;;;;;75.13;35.55;;;;;;;7.43;100.00;100498.91;5093588;28;20106;-49
2022/12/22 14:25:06;;;;;;;68.45;32.95;;;;;;;7.39;100.00;100491.94;5094253;28;20036;-49
2022/12/22 14:27:40;;;;;;;109.60;49.25;;;;;;;7.38;100.00;100492.75;5093407;28;20038;-45
2022/12/22 14:30:15;;;;;;;150.02;66.38;;;;;;;7.35;100.00;100482.41;5093650;28;20135;-48
2022/12/22 14:32:49;;;;;;;205.20;104.70;;;;;;;7.30;100.00;100478.78;5093877;28;20021;-46
2022/12/22 14:35:25;;;;;;;83.50;47.85;;;;;;;7.28;100.00;100477.84;5093366;28;20056;-46
2022/12/22 14:37:52;;;;;;;69.93;38.83;;;;;;;7.24;100.00;100470.06;5093654;28;20035;-44
2022/12/22 14:40:38;;;;;;;80.57;42.95;;;;;;;7.23;100.00;100476.00;5093792;28;20103;-46
2022/12/22 14:43:15;;;;;;;81.55;41.45;;;;;;;7.19;100.00;100469.00;5093178;28;20028;-44
2022/12/22 14:45:41;;;;;;;74.80;38.17;;;;;;;7.18;100.00;100466.38;5093496;28;20020;-48
2022/12/22 14:48:08;;;;;;;76.15;41.08;;;;;;;7.16;100.00;100468.88;5093727;28;20150;-47
2022/12/22 14:50:34;;;;;;;73.45;39.22;;;;;;;7.14;100.00;100459.38;5092599;28;20105;-47
2022/12/22 14:53:02;;;;;;;71.70;36.47;;;;;;;7.12;100.00;100451.66;5093592;28;20103;-47